Portada
METAR-TAF:

METAR-TAF

Aeroports :

Santiago de Xile, Xile

latitud: 33-23S, longitud: 070-47W, altitud: 475 m

Observació

L'informe es va fer fa 36 minuts, a les 05:00 UTC
Vent calma
Temperatura 18°C
Humitat 45%
Pressió 1016 hPa
Visibilitat 10 km o més
sense núvols per sota de 1500 mi sense presència de cumulonimbus.

METAR: SCEL 150500Z 00000KT CAVOK 18/06 Q1016 NOSIG

Hora: 02:36 (05:36 UTC)

Pronòstic

L'informe es va fer fa 1 hora i 36 minuts, a les 04:00 UTC
Pronòstic vàlid del 15 a les 06 UTC al 16 a les 06 UTC
Vent 5 kt del Sud-Est
Visibilitat 10 km o més
sense núvols per sota de 1500 mi sense presència de cumulonimbus.
Evolucionant progressivament
l' 15 a les 16 UTC al 15 a les 18 UTC
Vent 12 kt del Sud
Evolucionant progressivament
l' 16 a les 02 UTC al 16 a les 04 UTC
Vent 4 kt del Sud/Sud-Est

TAF: SCEL 150400Z 1506/1606 14005KT CAVOK TX32/1519Z TN11/1511Z BECMG 1516/1518 19012KT BECMG 1602/1604 16004KT

Observacions i pronòstics meteorològics de més de 4000 aeroports (METAR i TAF).

Les estacions disponibles són els punts grocs i vermells al mapa.

Posi el ratolí al punt desitjat per veure el nom de l'estació.

Feu clic per veure les observacions i els pronòstics meteorològics.

Per canviar el mapa: feu clic els botons verds amb una creu de color negre per apropar; al botó verd amb un guió per allunyar la imatge; o en les fletxes verdes per a mapes adjacents.


METAR-TAF: